Latest Coastal Weather Observations for Devonport Airport

IDV60701

Issued at 10:02 pm EST Friday 26 August 2016 (issued every 10 minutes, with the page automatically refreshed every 10 minutes)

About coastal observations | Map of coastal stations | Coastal observations for VIC | Marine services | Other Formats
Station Details ID: 091126 Name: DEVONPORT AIRPORT Lat: -41.17 Lon: 146.43 Height: 8.0 m
Data from the previous 72 hours. | See also: Recent months at Devonport Airport
Date/Time
EST
Temp
°C
Wind Pressure Rain since
9am
mm
Weather Cloud Vis
km
Sea
Height
m
Swell
Dir  Spd
kts
Gust
kts
hPa Trend Height
m
Period
s
Dir
26/10:00pm 9.6 WNW 16 19 1016.9 - 0.0 - - 10 - - - -
26/09:30pm 9.7 WNW 16 20 1016.9 - 0.0 - - 10 - - - -
26/09:00pm 9.6 WNW 14 18 1016.9 - 0.0 - - 10 - - - -
26/08:30pm 9.8 WNW 17 21 1016.8 - 0.0 - - 10 - - - -
26/08:00pm 10.3 WNW 17 20 1016.6 - 0.0 - - 10 - - - -
26/07:30pm 10.2 WNW 13 17 1016.5 - 0.0 - - 10 - - - -
26/07:00pm 10.3 WNW 13 16 1016.4 - 0.0 - - 10 - - - -
26/06:30pm 10.0 W 8 13 1016.1 - 0.0 - - 10 - - - -
26/06:00pm 10.6 W 11 15 1015.8 - 0.0 - - 10 - - - -
26/05:30pm 11.1 W 12 15 1015.5 - 0.0 - Partly cloudy 10 - - - -
26/05:00pm 12.0 W 14 19 1015.2 - 0.0 - Partly cloudy 10 - - - -
26/04:30pm 12.5 WNW 15 18 1015.0 - 0.0 - - 10 - - - -
26/04:00pm 12.3 WNW 19 25 1014.8 - 0.0 - Partly cloudy 10 - - - -
26/03:30pm 12.8 WNW 19 24 1014.8 - 0.0 - Partly cloudy 10 - - - -
26/03:00pm 13.9 W 13 18 1015.0 - 0.0 - Cloudy 10 - - - -
26/02:30pm 13.2 WNW 13 16 1015.0 - 0.0 - Partly cloudy 10 - - - -
26/02:00pm 13.6 WNW 14 21 1015.1 - 0.0 - Partly cloudy 10 - - - -
26/01:30pm 13.1 WNW 14 18 1015.2 - 0.0 - Partly cloudy 10 - - - -
26/01:00pm 12.2 WNW 12 15 1015.6 - 0.0 - Partly cloudy 10 - - - -
26/12:30pm 11.4 NW 16 19 1016.1 - 0.0 - Partly cloudy 10 - - - -
26/12:00pm 12.0 NW 16 20 1016.4 - 0.0 - Cloudy 10 - - - -
26/11:30am 11.6 NW 15 20 1016.8 - 0.0 - Partly cloudy 10 - - - -
26/11:00am 11.5 NW 16 20 1016.9 - 0.0 - Partly cloudy 10 - - - -
26/10:30am 10.8 WNW 14 17 1017.0 - 0.0 - - 10 - - - -
26/10:00am 10.3 WNW 15 18 1017.2 - 0.0 - - 10 - - - -
26/09:30am 9.6 WNW 14 18 1017.2 - 0.0 - - 10 - - - -
26/09:00am 9.2 WNW 16 19 1017.3 - 0.0 - - 10 - - - -
26/08:30am 8.7 WNW 14 17 1017.2 - 0.0 - - 10 - - - -
26/08:00am 6.4 WSW 7 9 1017.0 - 0.0 - - 10 - - - -
26/07:30am 5.0 WSW 9 11 1016.8 - 0.0 - - 10 - - - -
26/07:00am 3.9 WSW 6 8 1016.5 - 0.0 - - 10 - - - -
26/06:30am 4.2 SSW 5 7 1016.0 - 0.0 - - 10 - - - -
26/06:00am 4.7 WSW 6 8 1016.0 - 0.0 - - 10 - - - -
26/05:30am 4.6 W 5 8 1015.9 - 0.0 - - 10 - - - -
26/05:00am 3.9 W 5 6 1015.9 - 0.0 - - 10 - - - -
26/04:30am 3.5 SSW 5 7 1015.7 - 0.0 - - 10 - - - -
26/04:00am 5.2 WSW 5 6 1015.6 - 0.0 - - 10 - - - -
26/03:30am 4.6 WSW 5 6 1015.5 - 0.0 - - 10 - - - -
26/03:00am 4.5 W 5 6 1015.5 - 0.0 - - 10 - - - -
26/02:30am 3.3 SW 3 4 1015.6 - 0.0 - - 10 - - - -
26/02:00am 3.3 W 7 9 1015.9 - 0.0 - - 10 - - - -
26/01:30am 4.1 WSW 9 11 1015.9 - 0.0 - - 10 - - - -
26/01:00am 3.6 W 8 11 1015.9 - 0.0 - - 10 - - - -
26/12:30am 4.8 WSW 10 12 1016.0 - 0.0 - - 10 - - - -
26/12:00am 5.6 WSW 5 7 1016.0 - 0.0 - - 10 - - - -
 
Date/Time
EST
Temp
°C
Wind Pressure Rain since
9am
mm
Weather Cloud Vis
km
Sea
Height
m
Swell
Dir  Spd
kts
Gust
kts
hPa Trend Height
m
Period
s
Dir
25/11:30pm 4.8 W 7 8 1015.8 - 0.0 - - 10 - - - -
25/11:00pm 5.7 WSW 7 10 1015.9 - 0.0 - - 10 - - - -
25/10:30pm 5.9 W 3 5 1016.0 - 0.0 - - 10 - - - -
25/10:00pm 6.7 SW 5 8 1015.7 - 0.0 - - 10 - - - -
25/09:30pm 6.5 W 6 9 1015.6 - 0.0 - - 10 - - - -
25/09:00pm 9.0 SSW 7 11 1015.2 - 0.0 - Mostly clear 10 - - - -
25/08:30pm 8.5 SSW 9 15 1015.1 - 0.0 - - 10 - - - -
25/08:00pm 9.3 SW 9 12 1014.6 - 0.0 - - 10 - - - -
25/07:30pm 9.5 SW 8 14 1014.4 - 0.0 - - 10 - - - -
25/07:00pm 9.4 SW 5 8 1014.1 - 0.0 - - 10 - - - -
25/06:30pm 10.1 SW 6 8 1013.9 - 0.0 - Partly cloudy 10 - - - -
25/06:00pm 9.5 SSW 5 6 1013.3 - 0.0 - Mostly clear 10 - - - -
25/05:30pm 11.2 W 5 6 1012.8 - 0.0 - - 10 - - - -
25/05:00pm 11.7 N 7 8 1012.4 - 0.0 - - 10 - - - -
25/04:30pm 11.7 NNW 8 9 1012.4 - 0.0 - Partly cloudy 10 - - - -
25/04:00pm 11.9 NNW 9 11 1012.5 - 0.0 - - 10 - - - -
25/03:30pm 11.9 NNW 10 12 1012.5 - 0.0 - - 10 - - - -
25/03:00pm 11.8 NW 11 13 1012.5 - 0.0 - - 10 - - - -
25/02:30pm 11.8 NNW 10 12 1012.4 - 0.0 - - 10 - - - -
25/02:00pm 11.3 NW 11 13 1012.1 - 0.0 - - 10 - - - -
25/01:30pm 11.2 NNW 10 12 1012.1 - 0.0 - - 10 - - - -
25/01:00pm 11.2 NNW 9 11 1012.2 - 0.0 - - 10 - - - -
25/12:30pm 11.3 NNW 7 9 1012.2 - 0.0 - - 10 - - - -
25/12:00pm 10.8 NNW 7 9 1012.4 - 0.0 - - 10 - - - -
25/11:30am 10.2 N 7 9 1012.5 - 0.0 - - 10 - - - -
25/11:00am 10.7 S 2 5 1012.7 - 0.0 - - 10 - - - -
25/10:30am 10.4 S 2 4 1012.5 - 0.0 - - 10 - - - -
25/10:00am 9.1 SSE 5 7 1012.5 - 0.0 - - 10 - - - -
25/09:30am 7.9 S 6 7 1012.4 - 0.0 - - 10 - - - -
25/09:00am 6.4 SSW 5 6 1012.6 - 0.0 - - 10 - - - -
25/08:30am 5.4 SSW 4 6 1012.2 - 0.0 - - 10 - - - -
25/08:00am 3.5 SW 6 8 1012.1 - 0.0 - - 10 - - - -
25/07:30am 2.0 SW 4 5 1011.7 - 0.0 - - 10 - - - -
25/07:00am 1.4 SSW 6 8 1011.5 - 0.0 - - 10 - - - -
25/06:30am 2.0 SSW 5 7 1011.2 - 0.0 - - 10 - - - -
25/06:00am 1.7 SSE 7 8 1011.0 - 0.0 - - 10 - - - -
25/05:30am 1.5 SSW 5 7 1010.4 - 0.0 - - 10 - - - -
25/05:00am 1.3 SSW 6 8 1010.3 - 0.0 - - 10 - - - -
25/04:30am 1.9 SSE 7 8 1010.3 - 0.0 - - 10 - - - -
25/04:00am 2.2 S 7 9 1010.0 - 0.0 - - 10 - - - -
25/03:30am 1.8 SW 5 7 1010.1 - 0.0 - - 10 - - - -
25/03:00am 2.2 S 7 8 1010.1 - 0.0 - - 10 - - - -
25/02:30am 2.8 SSW 4 6 1010.1 - 0.0 - - 10 - - - -
25/02:00am 2.1 S 5 6 1010.1 - 0.0 - - 10 - - - -
25/01:30am 3.1 SSE 7 8 1010.3 - 0.0 - - 10 - - - -
25/01:00am 2.6 SSE 6 7 1010.4 - 0.0 - - 10 - - - -
25/12:30am 2.7 S 3 4 1010.3 - 0.0 - - 10 - - - -
25/12:00am 3.7 SE 2 5 1010.5 - 0.0 - Cloudy 10 - - - -
 
Date/Time
EST
Temp
°C
Wind Pressure Rain since
9am
mm
Weather Cloud Vis
km
Sea
Height
m
Swell
Dir  Spd
kts
Gust
kts
hPa Trend Height
m
Period
s
Dir
24/11:30pm 4.3 SSE 2 4 1010.6 - 0.0 - - 10 - - - -
24/11:00pm 4.6 S 4 6 1010.6 - 0.0 - - 10 - - - -
24/10:30pm 5.8 WSW 6 8 1010.8 - 0.0 - - 10 - - - -
24/10:00pm 5.7 WSW 6 7 1011.1 - 0.0 - Partly cloudy 10 - - - -
24/09:30pm 6.7 W 8 10 1011.2 - 0.0 - Partly cloudy 10 - - - -
24/09:00pm 6.8 WSW 6 8 1011.3 - 0.0 - Mostly clear 10 - - - -
24/08:30pm 6.0 WSW 7 9 1011.5 - 0.0 - - 10 - - - -
24/08:00pm 9.0 SW 9 12 1011.6 - 0.0 - - 10 - - - -
24/07:30pm 8.8 SW 9 13 1011.5 - 0.0 - - 10 - - - -
24/07:00pm 9.1 SW 7 10 1011.4 - 0.0 - - 10 - - - -
24/06:30pm 8.0 WSW 9 11 1011.2 - 0.0 - - 10 - - - -
24/06:00pm 9.0 WSW 10 12 1011.0 - 0.0 - - 10 - - - -
24/05:30pm 10.1 WSW 8 11 1010.9 - 0.0 - - 10 - - - -
24/05:00pm 11.8 WSW 9 12 1010.8 - 0.0 - - 10 - - - -
24/04:30pm 12.9 W 7 11 1010.6 - 0.0 - - 10 - - - -
24/04:00pm 13.0 SW 8 11 1010.7 - 0.0 - Partly cloudy 10 - - - -
24/03:30pm 12.9 WNW 12 17 1010.7 - 0.0 - Partly cloudy 10 - - - -
24/03:00pm 12.2 NNW 12 16 1010.8 - 0.0 - - 10 - - - -
24/02:30pm 12.1 NW 14 17 1011.1 - 0.0 - - 10 - - - -
24/02:00pm 12.2 NNW 12 14 1011.4 - 0.0 - - 10 - - - -
24/01:30pm 11.7 NNW 13 16 1011.8 - 0.0 - - 10 - - - -
24/01:00pm 11.6 NW 14 17 1012.3 - 0.0 - - 10 - - - -
24/12:30pm 11.7 NW 12 14 1012.7 - 0.0 - Partly cloudy 10 - - - -
24/12:00pm 11.6 NW 10 13 1013.4 - 0.0 - Mostly clear 10 - - - -
24/11:30am 10.6 NW 7 9 1013.9 - 0.0 - - 10 - - - -
24/11:00am 10.1 NW 5 7 1014.3 - 0.0 - - 10 - - - -
24/10:30am 9.1 NNW 6 7 1014.6 - 0.0 - - 10 - - - -
24/10:00am 8.9 NW 4 6 1014.7 - 0.0 - Partly cloudy 10 - - - -
24/09:30am 7.9 SW 5 6 1015.2 - 0.0 - - 10 - - - -
24/09:00am 6.3 SSW 5 7 1015.4 - 0.0 - - 10 - - - -
24/08:30am 5.3 S 5 7 1015.5 - 0.0 - - 10 - - - -
24/08:00am 3.2 SSW 3 5 1015.6 - 0.0 - - 10 - - - -
24/07:30am 1.4 S 7 8 1015.6 - 0.0 - - 10 - - - -
24/07:00am 1.0 S 5 6 1015.5 - 0.0 - - 10 - - - -
24/06:30am 0.7 S 6 6 1015.4 - 0.0 - - 10 - - - -
24/06:00am 0.7 S 5 6 1015.2 - 0.0 - - 10 - - - -
24/05:30am 0.7 S 5 6 1015.1 - 0.0 - - 10 - - - -
24/05:00am 1.2 SSE 5 7 1015.1 - 0.0 - - 10 - - - -
24/04:30am 1.3 SSE 1 3 1015.0 - 0.0 - - 10 - - - -
24/04:00am 1.6 SSE 2 7 1014.9 - 0.0 - - 10 - - - -
24/03:30am 2.2 S 3 5 1015.0 - 0.0 - - 10 - - - -
24/03:00am 3.0 SSW 4 5 1015.1 - 0.0 - - 10 - - - -
24/02:30am 4.1 SW 4 5 1015.4 - 0.0 - - 10 - - - -
24/02:00am 4.5 WSW 3 5 1015.7 - 0.0 - - 10 - - - -
24/01:30am 3.5 S 3 5 1015.8 - 0.0 - - 10 - - - -
24/01:00am 2.8 WSW 4 6 1015.8 - 0.0 - - 10 - - - -
24/12:30am 3.8 SW 1 5 1016.2 - 0.0 - - 10 - - - -
24/12:00am 3.8 WSW 1 4 1016.3 - 0.0 - - 10 - - - -
 
Date/Time
EST
Temp
°C
Wind Pressure Rain since
9am
mm
Weather Cloud Vis
km
Sea
Height
m
Swell
Dir  Spd
kts
Gust
kts
hPa Trend Height
m
Period
s
Dir
23/11:30pm 5.0 SW 4 5 1016.5 - 0.0 - - 10 - - - -
23/11:00pm 4.1 WSW 5 8 1016.7 - 0.0 - - 10 - - - -
23/10:30pm 3.0 SW 3 5 1016.7 - 0.0 - - 10 - - - -

Other Formats:

Comma delimited format used in spreadsheet applications
http://www.bom.gov.au/fwo/IDV60701/IDV60701.95960.axf

JavaScript Object Notation format (JSON) in row-major order
http://www.bom.gov.au/fwo/IDV60701/IDV60701.95960.json